Airfield :
LOGIN :

Register | Disclaimer

   EN    FR    IT 

 










Legend :    VFR   Marginal VFR   IFR   Intensive IFR   Very Intensive IFR
Visi :
Ceiling :
>= 8 km
>= 3000ft
5 to 8 km
1000 to 3000 ft
1500m to 5 km
500 to 1000 ft
800 to 1500m
200 to 500 ft
< 800m
< 200 ft
Symbols :   Thunderstorms  Fog  Heavy snow  Heavy precipitations  Wind > 20 kt
SIGMETs :     Misc.  Thunderstorms  Icing  Turbulence  Mountain Waves  Volcanic Ashes







- Airport Elevation : 427 ft
- IATA code : KBP


UKBB - Boryspil'

CURRENT METAR :
  • 231900Z 36002MPS CAVOK M01/M03 Q1023 R88/CLRD// NOSIG

EXPIRED METARs :
  • 231830Z 04002MPS 010V070 CAVOK 01/M03 Q1023 R88/D NOSIG
  • 231800Z 04002MPS CAVOK 01/M04 Q1023 R88/D NOSIG
  • 231730Z 03003MPS CAVOK 02/M04 Q1023 R88/D NOSIG
  • 231700Z 02005MPS CAVOK 05/M04 Q1023 R88/CLRD// NOSIG
  • 231630Z 02005MPS CAVOK 05/M04 Q1023 R88/CLRD// NOSIG

TAF TAF UKBB
Valid from the 23 at 18:00 until the 24 at 18:00 UTC


231703Z 2318/2418 01003G08MPS 9999 BKN020 TX08/2412Z TNM00/2404Z
TEMPO 2320/2405 2000 BR BKN007
BECMG 2405/2406 27003G08MPS
TEMPO 2406/2415 30005G10MPS 3000 -SHRA BKN007 SCT012CB
No reported NOTAMs for that airfield.



MET'MAP, your aeronautical weather chart ! - Copyright ORBIFLY December 2007 - Disclaimer

ORBIFLY MET'MAP TEAM :

Programming & Development : Alexandra Zaïnal
Concept & Development : Baudouin d'Aumeries
Co-Development & Prog : Marc-Olivier Méhu
Technical & hardware support : Manuel Goepfert

Contact : metmap@orbifly.com




SOURCES & CREDITS :

   NOAA